sensor_id;sensor_type;location;lat;lon;timestamp;temperature;humidity
37868;DHT22;24011;48.880;9.190;2023-03-14T00:00:42;24.50;34.80
37868;DHT22;24011;48.880;9.190;2023-03-14T00:03:19;24.50;34.80
37868;DHT22;24011;48.880;9.190;2023-03-14T00:05:51;24.50;34.80
37868;DHT22;24011;48.880;9.190;2023-03-14T00:08:27;24.50;34.80
37868;DHT22;24011;48.880;9.190;2023-03-14T00:11:06;24.50;34.80
37868;DHT22;24011;48.880;9.190;2023-03-14T00:13:38;24.50;34.80
37868;DHT22;24011;48.880;9.190;2023-03-14T00:16:10;24.50;34.80
37868;DHT22;24011;48.880;9.190;2023-03-14T00:18:43;24.50;34.80
37868;DHT22;24011;48.880;9.190;2023-03-14T00:21:15;24.50;34.80
37868;DHT22;24011;48.880;9.190;2023-03-14T00:23:53;24.50;34.70
37868;DHT22;24011;48.880;9.190;2023-03-14T00:26:24;24.50;34.70
37868;DHT22;24011;48.880;9.190;2023-03-14T00:29:01;24.50;34.80
37868;DHT22;24011;48.880;9.190;2023-03-14T00:31:35;24.50;34.70
37868;DHT22;24011;48.880;9.190;2023-03-14T00:34:07;24.50;34.70
37868;DHT22;24011;48.880;9.190;2023-03-14T00:36:43;24.50;34.80
37868;DHT22;24011;48.880;9.190;2023-03-14T00:39:19;24.50;34.80
37868;DHT22;24011;48.880;9.190;2023-03-14T00:41:55;24.50;34.80
37868;DHT22;24011;48.880;9.190;2023-03-14T00:44:27;24.50;34.80
37868;DHT22;24011;48.880;9.190;2023-03-14T00:47:03;24.50;34.80
37868;DHT22;24011;48.880;9.190;2023-03-14T00:49:34;24.40;34.80
37868;DHT22;24011;48.880;9.190;2023-03-14T00:52:09;24.50;35.00
37868;DHT22;24011;48.880;9.190;2023-03-14T00:54:45;24.40;34.80
37868;DHT22;24011;48.880;9.190;2023-03-14T00:57:15;24.40;34.80
37868;DHT22;24011;48.880;9.190;2023-03-14T00:59:47;24.40;34.80
37868;DHT22;24011;48.880;9.190;2023-03-14T01:02:18;24.40;34.80
37868;DHT22;24011;48.880;9.190;2023-03-14T01:04:52;24.40;34.70
37868;DHT22;24011;48.880;9.190;2023-03-14T01:07:23;24.40;34.80
37868;DHT22;24011;48.880;9.190;2023-03-14T01:09:59;24.40;34.70
37868;DHT22;24011;48.880;9.190;2023-03-14T01:12:31;24.40;34.90
37868;DHT22;24011;48.880;9.190;2023-03-14T01:15:04;24.40;34.80
37868;DHT22;24011;48.880;9.190;2023-03-14T01:17:39;24.40;34.80
37868;DHT22;24011;48.880;9.190;2023-03-14T01:20:14;24.40;34.70
37868;DHT22;24011;48.880;9.190;2023-03-14T01:22:54;24.40;34.80
37868;DHT22;24011;48.880;9.190;2023-03-14T01:25:27;24.40;34.70
37868;DHT22;24011;48.880;9.190;2023-03-14T01:27:58;24.40;34.80
37868;DHT22;24011;48.880;9.190;2023-03-14T01:30:28;24.40;34.80
37868;DHT22;24011;48.880;9.190;2023-03-14T01:33:00;24.40;34.70
37868;DHT22;24011;48.880;9.190;2023-03-14T01:35:31;24.40;34.70
37868;DHT22;24011;48.880;9.190;2023-03-14T01:38:04;24.40;34.70
37868;DHT22;24011;48.880;9.190;2023-03-14T01:40:44;24.40;34.70
37868;DHT22;24011;48.880;9.190;2023-03-14T01:43:19;24.40;34.70
37868;DHT22;24011;48.880;9.190;2023-03-14T01:49:17;24.40;34.70
37868;DHT22;24011;48.880;9.190;2023-03-14T01:51:55;24.40;35.30
37868;DHT22;24011;48.880;9.190;2023-03-14T01:54:30;24.40;34.60
37868;DHT22;24011;48.880;9.190;2023-03-14T01:57:08;24.40;34.70
37868;DHT22;24011;48.880;9.190;2023-03-14T01:59:45;24.40;34.70
37868;DHT22;24011;48.880;9.190;2023-03-14T02:02:18;24.40;34.80
37868;DHT22;24011;48.880;9.190;2023-03-14T02:04:49;24.30;34.80
37868;DHT22;24011;48.880;9.190;2023-03-14T02:07:24;24.30;34.70
37868;DHT22;24011;48.880;9.190;2023-03-14T02:09:57;24.40;34.70
37868;DHT22;24011;48.880;9.190;2023-03-14T02:12:30;24.40;34.70
37868;DHT22;24011;48.880;9.190;2023-03-14T02:15:03;24.30;34.70
37868;DHT22;24011;48.880;9.190;2023-03-14T02:17:41;24.30;34.70
37868;DHT22;24011;48.880;9.190;2023-03-14T02:20:27;24.30;34.70
37868;DHT22;24011;48.880;9.190;2023-03-14T02:23:00;24.30;34.70
37868;DHT22;24011;48.880;9.190;2023-03-14T02:25:45;24.30;34.70
37868;DHT22;24011;48.880;9.190;2023-03-14T02:28:25;24.30;34.80
37868;DHT22;24011;48.880;9.190;2023-03-14T02:30:56;24.30;34.70
37868;DHT22;24011;48.880;9.190;2023-03-14T02:33:29;24.30;34.70
37868;DHT22;24011;48.880;9.190;2023-03-14T02:36:07;24.30;34.70
37868;DHT22;24011;48.880;9.190;2023-03-14T02:38:44;24.30;34.70
37868;DHT22;24011;48.880;9.190;2023-03-14T02:41:19;24.30;34.70
37868;DHT22;24011;48.880;9.190;2023-03-14T02:43:55;24.30;34.70
37868;DHT22;24011;48.880;9.190;2023-03-14T02:46:25;24.30;34.70
37868;DHT22;24011;48.880;9.190;2023-03-14T02:49:03;24.30;34.70
37868;DHT22;24011;48.880;9.190;2023-03-14T02:51:35;24.30;34.80
37868;DHT22;24011;48.880;9.190;2023-03-14T02:54:09;24.30;34.70
37868;DHT22;24011;48.880;9.190;2023-03-14T02:56:40;24.30;34.70
37868;DHT22;24011;48.880;9.190;2023-03-14T02:59:13;24.30;34.80
37868;DHT22;24011;48.880;9.190;2023-03-14T03:01:47;24.30;34.70
37868;DHT22;24011;48.880;9.190;2023-03-14T03:04:22;24.30;34.60
37868;DHT22;24011;48.880;9.190;2023-03-14T03:06:53;24.30;34.60
37868;DHT22;24011;48.880;9.190;2023-03-14T03:09:26;24.30;34.70
37868;DHT22;24011;48.880;9.190;2023-03-14T03:12:02;24.30;34.60
37868;DHT22;24011;48.880;9.190;2023-03-14T03:14:37;24.30;34.60
37868;DHT22;24011;48.880;9.190;2023-03-14T03:17:10;24.30;34.70
37868;DHT22;24011;48.880;9.190;2023-03-14T03:19:44;24.30;34.60
37868;DHT22;24011;48.880;9.190;2023-03-14T03:22:23;24.30;34.60
37868;DHT22;24011;48.880;9.190;2023-03-14T03:24:53;24.30;34.70
37868;DHT22;24011;48.880;9.190;2023-03-14T03:27:32;24.30;34.70
37868;DHT22;24011;48.880;9.190;2023-03-14T03:30:11;24.20;34.70
37868;DHT22;24011;48.880;9.190;2023-03-14T03:32:50;24.30;34.70
37868;DHT22;24011;48.880;9.190;2023-03-14T03:35:24;24.30;34.60
37868;DHT22;24011;48.880;9.190;2023-03-14T03:37:56;24.30;34.60
37868;DHT22;24011;48.880;9.190;2023-03-14T03:40:31;24.30;34.70
37868;DHT22;24011;48.880;9.190;2023-03-14T03:43:05;24.20;34.70
37868;DHT22;24011;48.880;9.190;2023-03-14T03:45:40;24.20;34.70
37868;DHT22;24011;48.880;9.190;2023-03-14T03:48:12;24.20;34.70
37868;DHT22;24011;48.880;9.190;2023-03-14T03:50:50;24.20;34.70
37868;DHT22;24011;48.880;9.190;2023-03-14T03:53:21;24.20;34.70
37868;DHT22;24011;48.880;9.190;2023-03-14T03:56:00;24.20;34.70
37868;DHT22;24011;48.880;9.190;2023-03-14T03:58:31;24.20;34.60
37868;DHT22;24011;48.880;9.190;2023-03-14T04:01:05;24.20;34.50
37868;DHT22;24011;48.880;9.190;2023-03-14T04:03:36;24.30;34.40
37868;DHT22;24011;48.880;9.190;2023-03-14T04:06:11;24.30;34.30
37868;DHT22;24011;48.880;9.190;2023-03-14T04:08:42;24.30;34.20
37868;DHT22;24011;48.880;9.190;2023-03-14T04:11:17;24.30;34.30
37868;DHT22;24011;48.880;9.190;2023-03-14T04:13:56;24.20;34.10
37868;DHT22;24011;48.880;9.190;2023-03-14T04:16:30;24.20;34.10
37868;DHT22;24011;48.880;9.190;2023-03-14T04:19:03;24.20;34.20
37868;DHT22;24011;48.880;9.190;2023-03-14T04:21:41;24.20;34.20
37868;DHT22;24011;48.880;9.190;2023-03-14T04:24:18;24.20;34.20
37868;DHT22;24011;48.880;9.190;2023-03-14T04:26:50;24.20;34.30
37868;DHT22;24011;48.880;9.190;2023-03-14T04:29:25;24.20;34.40
37868;DHT22;24011;48.880;9.190;2023-03-14T04:31:58;24.20;34.40
37868;DHT22;24011;48.880;9.190;2023-03-14T04:34:34;24.20;34.50
37868;DHT22;24011;48.880;9.190;2023-03-14T04:37:07;24.20;34.40
37868;DHT22;24011;48.880;9.190;2023-03-14T04:39:47;24.30;34.50
37868;DHT22;24011;48.880;9.190;2023-03-14T04:42:22;24.30;34.50
37868;DHT22;24011;48.880;9.190;2023-03-14T04:44:52;24.20;34.50
37868;DHT22;24011;48.880;9.190;2023-03-14T04:47:27;24.20;34.50
37868;DHT22;24011;48.880;9.190;2023-03-14T04:50:03;24.20;34.60
37868;DHT22;24011;48.880;9.190;2023-03-14T04:52:33;24.10;34.60
37868;DHT22;24011;48.880;9.190;2023-03-14T04:55:04;24.10;34.60
37868;DHT22;24011;48.880;9.190;2023-03-14T04:57:36;24.20;34.70
37868;DHT22;24011;48.880;9.190;2023-03-14T05:00:10;24.10;34.60
37868;DHT22;24011;48.880;9.190;2023-03-14T05:02:46;24.10;35.40
37868;DHT22;24011;48.880;9.190;2023-03-14T05:05:16;24.10;34.70
37868;DHT22;24011;48.880;9.190;2023-03-14T05:07:50;24.10;34.80
37868;DHT22;24011;48.880;9.190;2023-03-14T05:10:53;24.10;34.80
37868;DHT22;24011;48.880;9.190;2023-03-14T05:13:24;24.10;34.90
37868;DHT22;24011;48.880;9.190;2023-03-14T05:16:04;24.10;34.90
37868;DHT22;24011;48.880;9.190;2023-03-14T05:18:36;24.10;35.00
37868;DHT22;24011;48.880;9.190;2023-03-14T05:21:05;24.10;35.00
37868;DHT22;24011;48.880;9.190;2023-03-14T05:23:38;24.10;35.10
37868;DHT22;24011;48.880;9.190;2023-03-14T05:26:07;24.00;35.10
37868;DHT22;24011;48.880;9.190;2023-03-14T05:28:37;24.10;35.10
37868;DHT22;24011;48.880;9.190;2023-03-14T05:31:07;24.00;35.10
37868;DHT22;24011;48.880;9.190;2023-03-14T05:33:38;24.00;35.10
37868;DHT22;24011;48.880;9.190;2023-03-14T05:36:10;24.00;35.10
37868;DHT22;24011;48.880;9.190;2023-03-14T05:38:41;24.00;35.30
37868;DHT22;24011;48.880;9.190;2023-03-14T05:41:11;24.00;36.10
37868;DHT22;24011;48.880;9.190;2023-03-14T05:43:41;24.00;35.30
37868;DHT22;24011;48.880;9.190;2023-03-14T05:46:10;24.00;35.30
37868;DHT22;24011;48.880;9.190;2023-03-14T05:48:42;24.00;35.30
37868;DHT22;24011;48.880;9.190;2023-03-14T05:51:11;24.00;35.50
37868;DHT22;24011;48.880;9.190;2023-03-14T05:53:40;23.90;35.50
37868;DHT22;24011;48.880;9.190;2023-03-14T05:56:10;24.00;35.50
37868;DHT22;24011;48.880;9.190;2023-03-14T05:58:39;23.90;35.40
37868;DHT22;24011;48.880;9.190;2023-03-14T06:01:09;23.90;36.10
37868;DHT22;24011;48.880;9.190;2023-03-14T06:03:38;23.90;35.60
37868;DHT22;24011;48.880;9.190;2023-03-14T06:06:10;23.90;35.60
37868;DHT22;24011;48.880;9.190;2023-03-14T06:08:39;23.90;35.60
37868;DHT22;24011;48.880;9.190;2023-03-14T06:11:13;23.90;35.70
37868;DHT22;24011;48.880;9.190;2023-03-14T06:13:42;23.90;35.60
37868;DHT22;24011;48.880;9.190;2023-03-14T06:16:11;23.90;35.60
37868;DHT22;24011;48.880;9.190;2023-03-14T06:18:42;23.90;35.60
37868;DHT22;24011;48.880;9.190;2023-03-14T06:21:12;23.80;35.60
37868;DHT22;24011;48.880;9.190;2023-03-14T06:23:44;23.80;36.20
37868;DHT22;24011;48.880;9.190;2023-03-14T06:26:14;23.80;35.70
37868;DHT22;24011;48.880;9.190;2023-03-14T06:28:43;23.80;35.60
37868;DHT22;24011;48.880;9.190;2023-03-14T06:31:14;23.90;35.70
37868;DHT22;24011;48.880;9.190;2023-03-14T06:33:43;23.90;35.70
37868;DHT22;24011;48.880;9.190;2023-03-14T06:36:14;23.80;35.70
37868;DHT22;24011;48.880;9.190;2023-03-14T06:38:43;23.80;35.70
37868;DHT22;24011;48.880;9.190;2023-03-14T06:41:13;23.80;35.70
37868;DHT22;24011;48.880;9.190;2023-03-14T06:43:43;23.90;35.70
37868;DHT22;24011;48.880;9.190;2023-03-14T06:46:12;23.90;35.70
37868;DHT22;24011;48.880;9.190;2023-03-14T06:48:43;23.90;35.70
37868;DHT22;24011;48.880;9.190;2023-03-14T06:51:14;24.00;35.70
37868;DHT22;24011;48.880;9.190;2023-03-14T06:53:44;24.00;35.70
37868;DHT22;24011;48.880;9.190;2023-03-14T06:56:13;24.00;35.60
37868;DHT22;24011;48.880;9.190;2023-03-14T06:58:43;24.10;35.50
37868;DHT22;24011;48.880;9.190;2023-03-14T07:01:21;24.10;35.50
37868;DHT22;24011;48.880;9.190;2023-03-14T07:03:52;24.20;35.50
37868;DHT22;24011;48.880;9.190;2023-03-14T07:06:23;24.20;35.80
37868;DHT22;24011;48.880;9.190;2023-03-14T07:08:53;24.10;35.50
37868;DHT22;24011;48.880;9.190;2023-03-14T07:11:23;24.10;35.50
37868;DHT22;24011;48.880;9.190;2023-03-14T07:13:53;24.10;35.60
37868;DHT22;24011;48.880;9.190;2023-03-14T07:16:22;24.10;35.60
37868;DHT22;24011;48.880;9.190;2023-03-14T07:18:56;24.10;35.60
37868;DHT22;24011;48.880;9.190;2023-03-14T07:21:27;24.10;35.60
37868;DHT22;24011;48.880;9.190;2023-03-14T07:23:58;24.10;35.60
37868;DHT22;24011;48.880;9.190;2023-03-14T07:26:28;24.20;35.60
37868;DHT22;24011;48.880;9.190;2023-03-14T07:28:57;24.20;35.60
37868;DHT22;24011;48.880;9.190;2023-03-14T07:31:30;24.20;35.60
37868;DHT22;24011;48.880;9.190;2023-03-14T07:34:00;24.20;35.70
37868;DHT22;24011;48.880;9.190;2023-03-14T07:36:31;24.20;36.40
37868;DHT22;24011;48.880;9.190;2023-03-14T07:39:01;24.20;35.80
37868;DHT22;24011;48.880;9.190;2023-03-14T07:41:32;24.20;35.80
37868;DHT22;24011;48.880;9.190;2023-03-14T07:44:32;24.20;35.80
37868;DHT22;24011;48.880;9.190;2023-03-14T07:48:18;24.20;35.80
37868;DHT22;24011;48.880;9.190;2023-03-14T07:50:49;24.20;35.80
37868;DHT22;24011;48.880;9.190;2023-03-14T07:53:21;24.20;35.80
37868;DHT22;24011;48.880;9.190;2023-03-14T07:55:52;24.20;36.40
37868;DHT22;24011;48.880;9.190;2023-03-14T07:58:22;24.30;35.90
37868;DHT22;24011;48.880;9.190;2023-03-14T08:05:02;24.30;36.10
37868;DHT22;24011;48.880;9.190;2023-03-14T08:07:34;24.30;36.00
37868;DHT22;24011;48.880;9.190;2023-03-14T08:10:06;24.30;36.20
37868;DHT22;24011;48.880;9.190;2023-03-14T08:12:37;24.40;36.20
37868;DHT22;24011;48.880;9.190;2023-03-14T08:15:07;24.40;36.10
37868;DHT22;24011;48.880;9.190;2023-03-14T08:17:37;24.40;36.10
37868;DHT22;24011;48.880;9.190;2023-03-14T08:20:10;24.40;36.10
37868;DHT22;24011;48.880;9.190;2023-03-14T08:22:41;24.40;36.30
37868;DHT22;24011;48.880;9.190;2023-03-14T08:25:15;24.50;36.20
37868;DHT22;24011;48.880;9.190;2023-03-14T08:27:45;24.50;36.30
37868;DHT22;24011;48.880;9.190;2023-03-14T08:30:16;24.50;36.30
37868;DHT22;24011;48.880;9.190;2023-03-14T08:32:47;24.50;36.10
37868;DHT22;24011;48.880;9.190;2023-03-14T08:35:16;24.50;36.20
37868;DHT22;24011;48.880;9.190;2023-03-14T09:21:19;24.80;36.10
37868;DHT22;24011;48.880;9.190;2023-03-14T09:23:48;24.80;36.00
37868;DHT22;24011;48.880;9.190;2023-03-14T09:26:20;24.80;36.00
37868;DHT22;24011;48.880;9.190;2023-03-14T09:28:52;24.80;36.00
37868;DHT22;24011;48.880;9.190;2023-03-14T09:31:24;24.80;36.00
37868;DHT22;24011;48.880;9.190;2023-03-14T09:33:55;24.80;36.60
37868;DHT22;24011;48.880;9.190;2023-03-14T09:36:25;24.80;36.10
37868;DHT22;24011;48.880;9.190;2023-03-14T09:38:54;24.80;36.10
37868;DHT22;24011;48.880;9.190;2023-03-14T09:41:26;24.80;36.00
37868;DHT22;24011;48.880;9.190;2023-03-14T09:44:02;24.90;36.00
37868;DHT22;24011;48.880;9.190;2023-03-14T09:46:35;24.90;35.90
37868;DHT22;24011;48.880;9.190;2023-03-14T09:49:11;25.00;35.80
37868;DHT22;24011;48.880;9.190;2023-03-14T10:04:28;25.00;35.80
37868;DHT22;24011;48.880;9.190;2023-03-14T10:07:00;25.00;35.60
37868;DHT22;24011;48.880;9.190;2023-03-14T10:09:31;25.00;35.70
37868;DHT22;24011;48.880;9.190;2023-03-14T10:12:00;25.00;35.70
37868;DHT22;24011;48.880;9.190;2023-03-14T10:14:45;25.00;35.70
37868;DHT22;24011;48.880;9.190;2023-03-14T10:17:14;24.90;35.70
37868;DHT22;24011;48.880;9.190;2023-03-14T10:19:56;25.00;35.70
37868;DHT22;24011;48.880;9.190;2023-03-14T10:22:29;25.00;35.70
37868;DHT22;24011;48.880;9.190;2023-03-14T10:25:02;25.00;35.60
37868;DHT22;24011;48.880;9.190;2023-03-14T10:27:36;25.00;35.70
37868;DHT22;24011;48.880;9.190;2023-03-14T10:30:07;25.10;35.70
37868;DHT22;24011;48.880;9.190;2023-03-14T10:32:38;25.20;35.50
37868;DHT22;24011;48.880;9.190;2023-03-14T10:35:21;25.10;35.50
37868;DHT22;24011;48.880;9.190;2023-03-14T10:37:51;25.10;35.50
37868;DHT22;24011;48.880;9.190;2023-03-14T10:40:28;25.10;35.40
37868;DHT22;24011;48.880;9.190;2023-03-14T10:42:59;25.10;35.50
37868;DHT22;24011;48.880;9.190;2023-03-14T10:45:32;25.10;35.50
37868;DHT22;24011;48.880;9.190;2023-03-14T10:48:22;25.10;35.40
37868;DHT22;24011;48.880;9.190;2023-03-14T10:50:57;25.10;35.30
37868;DHT22;24011;48.880;9.190;2023-03-14T10:53:43;25.10;35.30
37868;DHT22;24011;48.880;9.190;2023-03-14T10:56:13;25.10;35.30
37868;DHT22;24011;48.880;9.190;2023-03-14T10:58:43;25.20;35.20
37868;DHT22;24011;48.880;9.190;2023-03-14T11:01:31;25.20;35.20
37868;DHT22;24011;48.880;9.190;2023-03-14T11:04:15;25.20;35.20
37868;DHT22;24011;48.880;9.190;2023-03-14T11:06:58;25.20;35.20
37868;DHT22;24011;48.880;9.190;2023-03-14T11:09:32;25.20;35.20
37868;DHT22;24011;48.880;9.190;2023-03-14T11:12:17;25.20;35.10
37868;DHT22;24011;48.880;9.190;2023-03-14T11:14:55;25.20;35.10
37868;DHT22;24011;48.880;9.190;2023-03-14T11:17:30;25.20;35.20
37868;DHT22;24011;48.880;9.190;2023-03-14T11:20:22;25.10;35.10
37868;DHT22;24011;48.880;9.190;2023-03-14T11:23:01;25.10;35.20
37868;DHT22;24011;48.880;9.190;2023-03-14T11:25:38;25.20;35.40
37868;DHT22;24011;48.880;9.190;2023-03-14T11:28:18;25.30;35.30
37868;DHT22;24011;48.880;9.190;2023-03-14T11:30:52;25.20;35.30
37868;DHT22;24011;48.880;9.190;2023-03-14T11:33:26;25.20;35.40
37868;DHT22;24011;48.880;9.190;2023-03-14T11:36:01;25.20;35.30
37868;DHT22;24011;48.880;9.190;2023-03-14T11:38:38;25.20;35.40
37868;DHT22;24011;48.880;9.190;2023-03-14T11:41:14;25.20;35.30
37868;DHT22;24011;48.880;9.190;2023-03-14T11:43:51;25.20;35.30
37868;DHT22;24011;48.880;9.190;2023-03-14T11:46:25;25.20;35.40
37868;DHT22;24011;48.880;9.190;2023-03-14T11:49:01;25.20;35.50
37868;DHT22;24011;48.880;9.190;2023-03-14T11:51:35;25.30;35.50
37868;DHT22;24011;48.880;9.190;2023-03-14T11:54:14;25.30;35.50
37868;DHT22;24011;48.880;9.190;2023-03-14T11:56:48;25.40;35.50
37868;DHT22;24011;48.880;9.190;2023-03-14T11:59:27;25.30;35.50
37868;DHT22;24011;48.880;9.190;2023-03-14T12:01:58;25.30;35.40
37868;DHT22;24011;48.880;9.190;2023-03-14T12:04:45;25.30;35.40
37868;DHT22;24011;48.880;9.190;2023-03-14T12:07:19;25.30;35.20
37868;DHT22;24011;48.880;9.190;2023-03-14T12:09:51;25.30;35.40
37868;DHT22;24011;48.880;9.190;2023-03-14T12:12:23;25.30;35.40
37868;DHT22;24011;48.880;9.190;2023-03-14T12:14:55;25.20;35.30
37868;DHT22;24011;48.880;9.190;2023-03-14T12:17:34;25.20;35.30
37868;DHT22;24011;48.880;9.190;2023-03-14T12:20:12;25.30;35.20
37868;DHT22;24011;48.880;9.190;2023-03-14T12:22:47;25.30;35.20
37868;DHT22;24011;48.880;9.190;2023-03-14T12:25:21;25.30;35.10
37868;DHT22;24011;48.880;9.190;2023-03-14T12:28:16;25.30;35.00
37868;DHT22;24011;48.880;9.190;2023-03-14T12:30:47;25.40;34.90
37868;DHT22;24011;48.880;9.190;2023-03-14T12:33:31;25.40;34.90
37868;DHT22;24011;48.880;9.190;2023-03-14T12:36:11;25.40;34.90
37868;DHT22;24011;48.880;9.190;2023-03-14T12:39:05;25.40;34.80
37868;DHT22;24011;48.880;9.190;2023-03-14T12:41:43;25.40;34.70
37868;DHT22;24011;48.880;9.190;2023-03-14T12:44:39;25.50;34.70
37868;DHT22;24011;48.880;9.190;2023-03-14T12:47:49;25.50;34.50
37868;DHT22;24011;48.880;9.190;2023-03-14T13:08:19;25.60;34.20
37868;DHT22;24011;48.880;9.190;2023-03-14T13:11:33;25.70;34.20
37868;DHT22;24011;48.880;9.190;2023-03-14T13:15:34;25.70;34.10
37868;DHT22;24011;48.880;9.190;2023-03-14T13:19:30;25.70;34.00
37868;DHT22;24011;48.880;9.190;2023-03-14T13:22:04;25.70;34.20
37868;DHT22;24011;48.880;9.190;2023-03-14T13:24:36;25.70;34.20
37868;DHT22;24011;48.880;9.190;2023-03-14T13:27:16;25.70;34.20
37868;DHT22;24011;48.880;9.190;2023-03-14T13:29:45;25.70;34.40
37868;DHT22;24011;48.880;9.190;2023-03-14T13:32:19;25.70;34.40
37868;DHT22;24011;48.880;9.190;2023-03-14T13:34:48;25.70;34.40
37868;DHT22;24011;48.880;9.190;2023-03-14T13:37:21;25.70;34.20
37868;DHT22;24011;48.880;9.190;2023-03-14T13:39:55;25.70;34.30
37868;DHT22;24011;48.880;9.190;2023-03-14T13:46:50;25.70;34.20
37868;DHT22;24011;48.880;9.190;2023-03-14T13:49:22;25.80;34.20
37868;DHT22;24011;48.880;9.190;2023-03-14T13:51:52;25.80;34.80
37868;DHT22;24011;48.880;9.190;2023-03-14T13:54:22;25.80;34.10
37868;DHT22;24011;48.880;9.190;2023-03-14T13:57:01;25.80;34.10
37868;DHT22;24011;48.880;9.190;2023-03-14T13:59:32;25.80;34.10
37868;DHT22;24011;48.880;9.190;2023-03-14T14:02:09;25.80;34.10
37868;DHT22;24011;48.880;9.190;2023-03-14T14:04:44;25.80;34.10
37868;DHT22;24011;48.880;9.190;2023-03-14T14:07:16;25.80;34.10
37868;DHT22;24011;48.880;9.190;2023-03-14T14:09:47;25.70;34.10
37868;DHT22;24011;48.880;9.190;2023-03-14T14:12:20;25.70;34.10
37868;DHT22;24011;48.880;9.190;2023-03-14T14:14:54;25.70;34.10
37868;DHT22;24011;48.880;9.190;2023-03-14T14:17:27;25.70;34.10
37868;DHT22;24011;48.880;9.190;2023-03-14T14:20:02;25.70;34.10
37868;DHT22;24011;48.880;9.190;2023-03-14T14:22:33;25.60;34.10
37868;DHT22;24011;48.880;9.190;2023-03-14T14:25:03;25.60;34.10
37868;DHT22;24011;48.880;9.190;2023-03-14T14:27:37;25.60;34.10
37868;DHT22;24011;48.880;9.190;2023-03-14T14:30:25;25.70;34.10
37868;DHT22;24011;48.880;9.190;2023-03-14T14:33:11;25.60;34.00
37868;DHT22;24011;48.880;9.190;2023-03-14T14:35:41;25.70;34.10
37868;DHT22;24011;48.880;9.190;2023-03-14T14:38:12;25.70;34.00
37868;DHT22;24011;48.880;9.190;2023-03-14T14:40:46;25.70;34.00
37868;DHT22;24011;48.880;9.190;2023-03-14T14:43:20;25.70;33.80
37868;DHT22;24011;48.880;9.190;2023-03-14T14:45:52;25.70;33.80
37868;DHT22;24011;48.880;9.190;2023-03-14T14:48:23;25.70;33.70
37868;DHT22;24011;48.880;9.190;2023-03-14T14:50:58;25.70;33.60
37868;DHT22;24011;48.880;9.190;2023-03-14T14:53:30;25.70;33.60
37868;DHT22;24011;48.880;9.190;2023-03-14T14:56:05;25.60;33.70
37868;DHT22;24011;48.880;9.190;2023-03-14T14:58:40;25.70;33.70
37868;DHT22;24011;48.880;9.190;2023-03-14T15:01:14;25.70;33.60
37868;DHT22;24011;48.880;9.190;2023-03-14T15:03:46;25.70;33.60
37868;DHT22;24011;48.880;9.190;2023-03-14T15:06:15;25.70;33.50
37868;DHT22;24011;48.880;9.190;2023-03-14T15:08:46;25.70;33.40
37868;DHT22;24011;48.880;9.190;2023-03-14T15:11:18;25.70;33.60
37868;DHT22;24011;48.880;9.190;2023-03-14T15:13:49;25.70;33.50
37868;DHT22;24011;48.880;9.190;2023-03-14T15:16:20;25.70;33.40
37868;DHT22;24011;48.880;9.190;2023-03-14T15:18:53;25.80;33.30
37868;DHT22;24011;48.880;9.190;2023-03-14T15:21:23;25.80;33.30
37868;DHT22;24011;48.880;9.190;2023-03-14T15:23:53;25.80;33.30
37868;DHT22;24011;48.880;9.190;2023-03-14T15:26:26;25.80;33.30
37868;DHT22;24011;48.880;9.190;2023-03-14T16:00:14;25.50;33.50
37868;DHT22;24011;48.880;9.190;2023-03-14T16:02:49;25.50;33.50
37868;DHT22;24011;48.880;9.190;2023-03-14T16:05:21;25.50;33.60
37868;DHT22;24011;48.880;9.190;2023-03-14T16:07:53;25.50;33.60
37868;DHT22;24011;48.880;9.190;2023-03-14T16:10:22;25.50;33.50
37868;DHT22;24011;48.880;9.190;2023-03-14T16:12:51;25.50;33.60
37868;DHT22;24011;48.880;9.190;2023-03-14T16:20:14;25.50;33.60
37868;DHT22;24011;48.880;9.190;2023-03-14T16:45:31;25.30;33.80
37868;DHT22;24011;48.880;9.190;2023-03-14T16:48:01;25.20;33.90
37868;DHT22;24011;48.880;9.190;2023-03-14T16:50:31;25.20;34.00
37868;DHT22;24011;48.880;9.190;2023-03-14T16:53:00;25.20;34.10
37868;DHT22;24011;48.880;9.190;2023-03-14T16:55:29;25.10;34.10
37868;DHT22;24011;48.880;9.190;2023-03-14T16:57:59;25.10;34.10
37868;DHT22;24011;48.880;9.190;2023-03-14T17:00:34;25.10;34.20
37868;DHT22;24011;48.880;9.190;2023-03-14T17:03:04;25.10;34.20
37868;DHT22;24011;48.880;9.190;2023-03-14T17:05:44;25.00;34.80
37868;DHT22;24011;48.880;9.190;2023-03-14T17:08:14;25.00;34.90
37868;DHT22;24011;48.880;9.190;2023-03-14T17:10:46;25.10;34.30
37868;DHT22;24011;48.880;9.190;2023-03-14T17:13:16;25.00;34.30
37868;DHT22;24011;48.880;9.190;2023-03-14T17:15:55;25.00;34.40
37868;DHT22;24011;48.880;9.190;2023-03-14T17:18:26;25.00;34.40
37868;DHT22;24011;48.880;9.190;2023-03-14T17:20:59;25.00;34.40
37868;DHT22;24011;48.880;9.190;2023-03-14T17:23:34;25.00;34.40
37868;DHT22;24011;48.880;9.190;2023-03-14T17:26:05;25.00;34.40
37868;DHT22;24011;48.880;9.190;2023-03-14T17:28:35;24.90;34.40
37868;DHT22;24011;48.880;9.190;2023-03-14T17:31:13;24.90;34.50
37868;DHT22;24011;48.880;9.190;2023-03-14T17:33:44;24.90;34.50
37868;DHT22;24011;48.880;9.190;2023-03-14T17:36:16;24.90;34.60
37868;DHT22;24011;48.880;9.190;2023-03-14T17:38:46;24.90;34.60
37868;DHT22;24011;48.880;9.190;2023-03-14T17:41:23;24.90;34.70
37868;DHT22;24011;48.880;9.190;2023-03-14T17:43:54;24.80;34.60
37868;DHT22;24011;48.880;9.190;2023-03-14T17:46:25;24.80;34.60
37868;DHT22;24011;48.880;9.190;2023-03-14T17:48:56;24.80;34.70
37868;DHT22;24011;48.880;9.190;2023-03-14T17:51:26;24.80;34.70
37868;DHT22;24011;48.880;9.190;2023-03-14T17:53:56;24.80;34.70
37868;DHT22;24011;48.880;9.190;2023-03-14T17:56:29;24.80;34.80
37868;DHT22;24011;48.880;9.190;2023-03-14T17:59:08;24.80;34.80
37868;DHT22;24011;48.880;9.190;2023-03-14T18:01:44;24.80;34.90
37868;DHT22;24011;48.880;9.190;2023-03-14T18:04:16;24.70;34.90
37868;DHT22;24011;48.880;9.190;2023-03-14T18:06:48;24.70;34.80
37868;DHT22;24011;48.880;9.190;2023-03-14T18:09:19;24.70;34.90
37868;DHT22;24011;48.880;9.190;2023-03-14T18:11:50;24.70;34.90
37868;DHT22;24011;48.880;9.190;2023-03-14T18:14:37;24.70;34.90
37868;DHT22;24011;48.880;9.190;2023-03-14T18:17:13;24.70;34.90
37868;DHT22;24011;48.880;9.190;2023-03-14T18:19:43;24.60;34.90
37868;DHT22;24011;48.880;9.190;2023-03-14T18:22:14;24.70;34.90
37868;DHT22;24011;48.880;9.190;2023-03-14T18:24:49;24.60;35.00
37868;DHT22;24011;48.880;9.190;2023-03-14T18:27:19;24.70;34.90
37868;DHT22;24011;48.880;9.190;2023-03-14T18:29:50;24.60;35.00
37868;DHT22;24011;48.880;9.190;2023-03-14T18:32:23;24.60;35.00
37868;DHT22;24011;48.880;9.190;2023-03-14T18:34:55;24.60;35.10
37868;DHT22;24011;48.880;9.190;2023-03-14T18:37:26;24.60;35.00
37868;DHT22;24011;48.880;9.190;2023-03-14T18:39:57;24.60;35.00